sensor_id;sensor_type;location;lat;lon;timestamp;P1;durP1;ratioP1;P2;durP2;ratioP2
58752;SDS011;44525;46.052;13.610;2023-02-26T00:00:22;1.30;;;1.20;;
58752;SDS011;44525;46.052;13.610;2023-02-26T00:02:47;2.55;;;1.48;;
58752;SDS011;44525;46.052;13.610;2023-02-26T00:05:14;1.20;;;1.10;;
58752;SDS011;44525;46.052;13.610;2023-02-26T00:07:40;2.88;;;1.13;;
58752;SDS011;44525;46.052;13.610;2023-02-26T00:10:07;1.60;;;0.82;;
58752;SDS011;44525;46.052;13.610;2023-02-26T00:12:34;0.90;;;0.90;;
58752;SDS011;44525;46.052;13.610;2023-02-26T00:15:00;1.63;;;0.90;;
58752;SDS011;44525;46.052;13.610;2023-02-26T00:17:47;0.90;;;0.90;;
58752;SDS011;44525;46.052;13.610;2023-02-26T00:20:42;0.70;;;0.70;;
58752;SDS011;44525;46.052;13.610;2023-02-26T00:23:11;0.88;;;0.88;;
58752;SDS011;44525;46.052;13.610;2023-02-26T00:25:38;1.50;;;0.80;;
58752;SDS011;44525;46.052;13.610;2023-02-26T00:28:04;0.95;;;0.77;;
58752;SDS011;44525;46.052;13.610;2023-02-26T00:30:31;0.90;;;0.90;;
58752;SDS011;44525;46.052;13.610;2023-02-26T00:32:57;1.00;;;0.95;;
58752;SDS011;44525;46.052;13.610;2023-02-26T00:35:22;1.17;;;1.00;;
58752;SDS011;44525;46.052;13.610;2023-02-26T00:43:00;0.80;;;0.80;;
58752;SDS011;44525;46.052;13.610;2023-02-26T00:45:27;1.15;;;1.05;;
58752;SDS011;44525;46.052;13.610;2023-02-26T00:50:36;0.70;;;0.70;;
58752;SDS011;44525;46.052;13.610;2023-02-26T00:53:14;1.00;;;1.00;;
58752;SDS011;44525;46.052;13.610;2023-02-26T00:55:41;0.80;;;0.80;;
58752;SDS011;44525;46.052;13.610;2023-02-26T00:58:06;0.80;;;0.80;;
58752;SDS011;44525;46.052;13.610;2023-02-26T01:00:32;2.00;;;0.88;;
58752;SDS011;44525;46.052;13.610;2023-02-26T01:02:57;1.05;;;1.02;;
58752;SDS011;44525;46.052;13.610;2023-02-26T01:05:23;1.23;;;1.15;;
58752;SDS011;44525;46.052;13.610;2023-02-26T01:07:58;0.77;;;0.77;;
58752;SDS011;44525;46.052;13.610;2023-02-26T01:10:26;0.82;;;0.80;;
58752;SDS011;44525;46.052;13.610;2023-02-26T01:12:52;1.00;;;1.00;;
58752;SDS011;44525;46.052;13.610;2023-02-26T01:15:18;3.13;;;0.98;;
58752;SDS011;44525;46.052;13.610;2023-02-26T01:20:24;1.95;;;1.13;;
58752;SDS011;44525;46.052;13.610;2023-02-26T01:22:54;0.70;;;0.70;;
58752;SDS011;44525;46.052;13.610;2023-02-26T01:27:53;2.45;;;1.55;;
58752;SDS011;44525;46.052;13.610;2023-02-26T01:30:21;0.90;;;0.90;;
58752;SDS011;44525;46.052;13.610;2023-02-26T01:35:38;0.70;;;0.70;;
58752;SDS011;44525;46.052;13.610;2023-02-26T01:48:55;2.55;;;1.00;;
58752;SDS011;44525;46.052;13.610;2023-02-26T01:54:13;0.68;;;0.68;;
58752;SDS011;44525;46.052;13.610;2023-02-26T01:56:40;1.13;;;1.02;;
58752;SDS011;44525;46.052;13.610;2023-02-26T01:59:07;4.30;;;1.17;;
58752;SDS011;44525;46.052;13.610;2023-02-26T02:01:36;0.85;;;0.85;;
58752;SDS011;44525;46.052;13.610;2023-02-26T02:04:03;1.30;;;1.20;;
58752;SDS011;44525;46.052;13.610;2023-02-26T02:06:30;0.75;;;0.75;;
58752;SDS011;44525;46.052;13.610;2023-02-26T02:08:55;1.40;;;1.30;;
58752;SDS011;44525;46.052;13.610;2023-02-26T02:11:21;1.08;;;1.00;;
58752;SDS011;44525;46.052;13.610;2023-02-26T02:13:55;0.98;;;0.98;;
58752;SDS011;44525;46.052;13.610;2023-02-26T02:16:39;0.75;;;0.75;;
58752;SDS011;44525;46.052;13.610;2023-02-26T02:32:58;0.90;;;0.90;;
58752;SDS011;44525;46.052;13.610;2023-02-26T02:35:29;1.85;;;1.10;;
58752;SDS011;44525;46.052;13.610;2023-02-26T02:38:05;1.23;;;1.10;;
58752;SDS011;44525;46.052;13.610;2023-02-26T02:40:40;1.00;;;0.98;;
58752;SDS011;44525;46.052;13.610;2023-02-26T02:43:15;1.27;;;1.00;;
58752;SDS011;44525;46.052;13.610;2023-02-26T02:51:07;0.80;;;0.80;;
58752;SDS011;44525;46.052;13.610;2023-02-26T02:53:39;0.80;;;0.80;;
58752;SDS011;44525;46.052;13.610;2023-02-26T02:56:22;3.40;;;1.15;;
58752;SDS011;44525;46.052;13.610;2023-02-26T02:58:54;1.02;;;1.02;;
58752;SDS011;44525;46.052;13.610;2023-02-26T03:01:25;0.70;;;0.70;;
58752;SDS011;44525;46.052;13.610;2023-02-26T03:03:56;1.02;;;0.93;;
58752;SDS011;44525;46.052;13.610;2023-02-26T03:06:29;2.20;;;0.73;;
58752;SDS011;44525;46.052;13.610;2023-02-26T03:08:54;0.70;;;0.70;;
58752;SDS011;44525;46.052;13.610;2023-02-26T03:11:20;0.70;;;0.70;;
58752;SDS011;44525;46.052;13.610;2023-02-26T03:13:45;1.00;;;1.00;;
58752;SDS011;44525;46.052;13.610;2023-02-26T03:27:04;1.05;;;1.05;;
58752;SDS011;44525;46.052;13.610;2023-02-26T03:29:40;0.98;;;0.98;;
58752;SDS011;44525;46.052;13.610;2023-02-26T03:32:20;0.93;;;0.93;;
58752;SDS011;44525;46.052;13.610;2023-02-26T03:34:55;0.65;;;0.65;;
58752;SDS011;44525;46.052;13.610;2023-02-26T03:37:49;1.00;;;1.00;;
58752;SDS011;44525;46.052;13.610;2023-02-26T03:40:21;1.05;;;1.02;;
58752;SDS011;44525;46.052;13.610;2023-02-26T03:42:56;0.98;;;0.95;;
58752;SDS011;44525;46.052;13.610;2023-02-26T03:45:29;0.60;;;0.60;;
58752;SDS011;44525;46.052;13.610;2023-02-26T03:47:58;2.55;;;1.02;;
58752;SDS011;44525;46.052;13.610;2023-02-26T03:50:30;1.10;;;1.02;;
58752;SDS011;44525;46.052;13.610;2023-02-26T03:52:59;1.23;;;1.13;;
58752;SDS011;44525;46.052;13.610;2023-02-26T03:55:29;1.55;;;1.05;;
58752;SDS011;44525;46.052;13.610;2023-02-26T03:57:59;0.95;;;0.95;;
58752;SDS011;44525;46.052;13.610;2023-02-26T04:00:26;0.95;;;0.95;;
58752;SDS011;44525;46.052;13.610;2023-02-26T04:05:31;1.00;;;1.00;;
58752;SDS011;44525;46.052;13.610;2023-02-26T04:07:59;1.08;;;1.08;;
58752;SDS011;44525;46.052;13.610;2023-02-26T04:10:28;0.93;;;0.93;;
58752;SDS011;44525;46.052;13.610;2023-02-26T04:13:16;0.73;;;0.73;;
58752;SDS011;44525;46.052;13.610;2023-02-26T04:15:42;0.90;;;0.90;;
58752;SDS011;44525;46.052;13.610;2023-02-26T04:18:07;1.25;;;1.15;;
58752;SDS011;44525;46.052;13.610;2023-02-26T04:20:32;1.73;;;1.15;;
58752;SDS011;44525;46.052;13.610;2023-02-26T04:22:58;1.08;;;0.98;;
58752;SDS011;44525;46.052;13.610;2023-02-26T04:25:23;1.65;;;1.52;;
58752;SDS011;44525;46.052;13.610;2023-02-26T04:27:49;1.10;;;1.05;;
58752;SDS011;44525;46.052;13.610;2023-02-26T04:30:14;2.78;;;1.88;;
58752;SDS011;44525;46.052;13.610;2023-02-26T04:32:40;1.55;;;1.45;;
58752;SDS011;44525;46.052;13.610;2023-02-26T04:35:05;1.55;;;1.45;;
58752;SDS011;44525;46.052;13.610;2023-02-26T04:37:31;2.45;;;1.60;;
58752;SDS011;44525;46.052;13.610;2023-02-26T04:39:56;1.38;;;1.27;;
58752;SDS011;44525;46.052;13.610;2023-02-26T04:42:22;1.33;;;1.23;;
58752;SDS011;44525;46.052;13.610;2023-02-26T04:44:47;2.88;;;2.00;;
58752;SDS011;44525;46.052;13.610;2023-02-26T04:47:12;2.35;;;1.90;;
58752;SDS011;44525;46.052;13.610;2023-02-26T04:49:38;3.78;;;2.50;;
58752;SDS011;44525;46.052;13.610;2023-02-26T04:52:03;3.10;;;1.45;;
58752;SDS011;44525;46.052;13.610;2023-02-26T04:54:29;1.90;;;1.50;;
58752;SDS011;44525;46.052;13.610;2023-02-26T04:56:54;1.98;;;1.40;;
58752;SDS011;44525;46.052;13.610;2023-02-26T04:59:20;4.05;;;1.65;;
58752;SDS011;44525;46.052;13.610;2023-02-26T05:01:45;3.90;;;1.75;;
58752;SDS011;44525;46.052;13.610;2023-02-26T05:04:11;1.88;;;1.45;;
58752;SDS011;44525;46.052;13.610;2023-02-26T05:06:36;1.75;;;1.50;;
58752;SDS011;44525;46.052;13.610;2023-02-26T05:09:02;1.33;;;1.23;;
58752;SDS011;44525;46.052;13.610;2023-02-26T05:11:27;0.90;;;0.90;;
58752;SDS011;44525;46.052;13.610;2023-02-26T05:13:53;0.90;;;0.90;;
58752;SDS011;44525;46.052;13.610;2023-02-26T05:16:18;3.40;;;1.35;;
58752;SDS011;44525;46.052;13.610;2023-02-26T05:18:43;0.80;;;0.80;;
58752;SDS011;44525;46.052;13.610;2023-02-26T05:21:09;1.25;;;1.17;;
58752;SDS011;44525;46.052;13.610;2023-02-26T05:23:34;1.65;;;1.20;;
58752;SDS011;44525;46.052;13.610;2023-02-26T05:26:00;1.23;;;1.23;;
58752;SDS011;44525;46.052;13.610;2023-02-26T05:28:26;0.88;;;0.88;;
58752;SDS011;44525;46.052;13.610;2023-02-26T05:30:52;1.13;;;1.08;;
58752;SDS011;44525;46.052;13.610;2023-02-26T05:33:17;1.33;;;1.20;;
58752;SDS011;44525;46.052;13.610;2023-02-26T05:35:43;1.75;;;1.13;;
58752;SDS011;44525;46.052;13.610;2023-02-26T05:38:09;1.98;;;1.20;;
58752;SDS011;44525;46.052;13.610;2023-02-26T05:40:35;1.52;;;1.42;;
58752;SDS011;44525;46.052;13.610;2023-02-26T05:43:00;1.58;;;1.48;;
58752;SDS011;44525;46.052;13.610;2023-02-26T05:45:25;0.88;;;0.88;;
58752;SDS011;44525;46.052;13.610;2023-02-26T05:47:51;1.80;;;1.70;;
58752;SDS011;44525;46.052;13.610;2023-02-26T05:50:16;0.73;;;0.73;;
58752;SDS011;44525;46.052;13.610;2023-02-26T05:52:42;1.00;;;0.93;;
58752;SDS011;44525;46.052;13.610;2023-02-26T05:55:07;1.00;;;0.98;;
58752;SDS011;44525;46.052;13.610;2023-02-26T05:57:33;1.38;;;1.27;;
58752;SDS011;44525;46.052;13.610;2023-02-26T05:59:58;1.83;;;1.73;;
58752;SDS011;44525;46.052;13.610;2023-02-26T06:02:24;1.75;;;1.08;;
58752;SDS011;44525;46.052;13.610;2023-02-26T06:04:49;0.77;;;0.77;;
58752;SDS011;44525;46.052;13.610;2023-02-26T06:07:15;3.05;;;1.65;;
58752;SDS011;44525;46.052;13.610;2023-02-26T06:09:40;1.80;;;1.70;;
58752;SDS011;44525;46.052;13.610;2023-02-26T06:12:06;2.30;;;1.52;;
58752;SDS011;44525;46.052;13.610;2023-02-26T06:14:32;1.33;;;1.23;;
58752;SDS011;44525;46.052;13.610;2023-02-26T06:16:58;1.27;;;1.15;;
58752;SDS011;44525;46.052;13.610;2023-02-26T06:19:24;1.00;;;1.00;;
58752;SDS011;44525;46.052;13.610;2023-02-26T06:21:49;1.40;;;1.30;;
58752;SDS011;44525;46.052;13.610;2023-02-26T06:24:15;1.95;;;1.40;;
58752;SDS011;44525;46.052;13.610;2023-02-26T06:26:40;1.83;;;1.42;;
58752;SDS011;44525;46.052;13.610;2023-02-26T06:29:06;1.40;;;1.30;;
58752;SDS011;44525;46.052;13.610;2023-02-26T06:31:32;1.02;;;1.02;;
58752;SDS011;44525;46.052;13.610;2023-02-26T06:33:58;1.30;;;1.20;;
58752;SDS011;44525;46.052;13.610;2023-02-26T06:36:23;1.30;;;1.20;;
58752;SDS011;44525;46.052;13.610;2023-02-26T06:38:49;1.23;;;1.13;;
58752;SDS011;44525;46.052;13.610;2023-02-26T06:41:14;0.95;;;0.95;;
58752;SDS011;44525;46.052;13.610;2023-02-26T06:43:39;1.40;;;1.30;;
58752;SDS011;44525;46.052;13.610;2023-02-26T06:46:05;3.67;;;2.28;;
58752;SDS011;44525;46.052;13.610;2023-02-26T06:48:31;9.18;;;4.35;;
58752;SDS011;44525;46.052;13.610;2023-02-26T06:50:57;3.42;;;2.00;;
58752;SDS011;44525;46.052;13.610;2023-02-26T06:53:22;2.97;;;2.00;;
58752;SDS011;44525;46.052;13.610;2023-02-26T06:55:49;5.78;;;2.90;;
58752;SDS011;44525;46.052;13.610;2023-02-26T06:58:15;12.23;;;5.85;;
58752;SDS011;44525;46.052;13.610;2023-02-26T07:00:41;13.50;;;5.95;;
58752;SDS011;44525;46.052;13.610;2023-02-26T07:03:09;14.43;;;6.10;;
58752;SDS011;44525;46.052;13.610;2023-02-26T07:05:36;17.08;;;8.98;;
58752;SDS011;44525;46.052;13.610;2023-02-26T07:08:01;6.13;;;3.67;;
58752;SDS011;44525;46.052;13.610;2023-02-26T07:10:29;4.93;;;2.88;;
58752;SDS011;44525;46.052;13.610;2023-02-26T07:12:56;4.75;;;3.10;;
58752;SDS011;44525;46.052;13.610;2023-02-26T07:15:22;2.05;;;1.80;;
58752;SDS011;44525;46.052;13.610;2023-02-26T07:17:47;2.80;;;2.03;;
58752;SDS011;44525;46.052;13.610;2023-02-26T07:20:13;1.77;;;1.52;;
58752;SDS011;44525;46.052;13.610;2023-02-26T07:22:38;2.88;;;1.90;;
58752;SDS011;44525;46.052;13.610;2023-02-26T07:25:04;8.07;;;4.53;;
58752;SDS011;44525;46.052;13.610;2023-02-26T07:27:30;3.53;;;2.40;;
58752;SDS011;44525;46.052;13.610;2023-02-26T07:29:57;3.58;;;2.38;;
58752;SDS011;44525;46.052;13.610;2023-02-26T07:32:22;2.75;;;1.92;;
58752;SDS011;44525;46.052;13.610;2023-02-26T07:34:48;2.25;;;1.92;;
58752;SDS011;44525;46.052;13.610;2023-02-26T07:37:13;2.10;;;1.85;;
58752;SDS011;44525;46.052;13.610;2023-02-26T07:39:39;6.95;;;3.25;;
58752;SDS011;44525;46.052;13.610;2023-02-26T07:42:04;2.80;;;1.88;;
58752;SDS011;44525;46.052;13.610;2023-02-26T07:44:29;6.45;;;3.50;;
58752;SDS011;44525;46.052;13.610;2023-02-26T07:46:55;6.10;;;3.42;;
58752;SDS011;44525;46.052;13.610;2023-02-26T07:49:20;5.40;;;3.05;;
58752;SDS011;44525;46.052;13.610;2023-02-26T07:51:46;1.98;;;1.65;;
58752;SDS011;44525;46.052;13.610;2023-02-26T07:54:13;4.35;;;2.03;;
58752;SDS011;44525;46.052;13.610;2023-02-26T07:56:39;2.60;;;2.10;;
58752;SDS011;44525;46.052;13.610;2023-02-26T07:59:07;5.20;;;2.17;;
58752;SDS011;44525;46.052;13.610;2023-02-26T08:01:33;3.55;;;2.30;;
58752;SDS011;44525;46.052;13.610;2023-02-26T08:04:00;3.08;;;2.17;;
58752;SDS011;44525;46.052;13.610;2023-02-26T08:06:25;4.38;;;2.60;;
58752;SDS011;44525;46.052;13.610;2023-02-26T08:08:51;5.20;;;2.47;;
58752;SDS011;44525;46.052;13.610;2023-02-26T08:11:16;2.70;;;2.10;;
58752;SDS011;44525;46.052;13.610;2023-02-26T08:13:42;4.63;;;2.38;;
58752;SDS011;44525;46.052;13.610;2023-02-26T08:16:07;2.78;;;2.20;;
58752;SDS011;44525;46.052;13.610;2023-02-26T08:18:33;2.72;;;1.80;;
58752;SDS011;44525;46.052;13.610;2023-02-26T08:20:58;3.45;;;2.35;;
58752;SDS011;44525;46.052;13.610;2023-02-26T08:23:23;5.30;;;2.50;;
58752;SDS011;44525;46.052;13.610;2023-02-26T08:25:50;6.82;;;2.70;;
58752;SDS011;44525;46.052;13.610;2023-02-26T08:28:24;2.93;;;2.10;;
58752;SDS011;44525;46.052;13.610;2023-02-26T08:30:51;2.22;;;1.88;;
58752;SDS011;44525;46.052;13.610;2023-02-26T08:33:17;5.75;;;2.17;;
58752;SDS011;44525;46.052;13.610;2023-02-26T08:35:43;4.00;;;2.40;;
58752;SDS011;44525;46.052;13.610;2023-02-26T08:38:08;2.78;;;2.10;;
58752;SDS011;44525;46.052;13.610;2023-02-26T08:40:34;2.72;;;2.10;;
58752;SDS011;44525;46.052;13.610;2023-02-26T08:42:59;3.55;;;2.30;;
58752;SDS011;44525;46.052;13.610;2023-02-26T08:45:25;3.10;;;2.00;;
58752;SDS011;44525;46.052;13.610;2023-02-26T08:47:50;4.30;;;2.42;;
58752;SDS011;44525;46.052;13.610;2023-02-26T08:50:18;4.22;;;2.97;;
58752;SDS011;44525;46.052;13.610;2023-02-26T08:52:43;3.42;;;1.90;;
58752;SDS011;44525;46.052;13.610;2023-02-26T08:55:09;3.60;;;2.30;;
58752;SDS011;44525;46.052;13.610;2023-02-26T08:57:34;3.97;;;2.35;;
58752;SDS011;44525;46.052;13.610;2023-02-26T09:00:00;4.18;;;2.50;;
58752;SDS011;44525;46.052;13.610;2023-02-26T09:02:25;6.45;;;2.70;;
58752;SDS011;44525;46.052;13.610;2023-02-26T09:04:51;3.17;;;2.40;;
58752;SDS011;44525;46.052;13.610;2023-02-26T09:07:16;3.75;;;2.40;;
58752;SDS011;44525;46.052;13.610;2023-02-26T09:09:41;3.10;;;2.35;;
58752;SDS011;44525;46.052;13.610;2023-02-26T09:12:07;4.25;;;2.58;;
58752;SDS011;44525;46.052;13.610;2023-02-26T09:14:32;4.38;;;2.40;;
58752;SDS011;44525;46.052;13.610;2023-02-26T09:16:58;2.85;;;1.95;;
58752;SDS011;44525;46.052;13.610;2023-02-26T09:19:23;6.57;;;3.88;;
58752;SDS011;44525;46.052;13.610;2023-02-26T09:21:48;4.40;;;2.70;;
58752;SDS011;44525;46.052;13.610;2023-02-26T09:24:14;2.80;;;2.08;;
58752;SDS011;44525;46.052;13.610;2023-02-26T09:26:39;4.47;;;2.50;;
58752;SDS011;44525;46.052;13.610;2023-02-26T09:29:05;7.30;;;3.70;;
58752;SDS011;44525;46.052;13.610;2023-02-26T09:31:30;3.42;;;2.47;;
58752;SDS011;44525;46.052;13.610;2023-02-26T09:33:56;4.85;;;2.30;;
58752;SDS011;44525;46.052;13.610;2023-02-26T09:36:22;3.40;;;2.25;;
58752;SDS011;44525;46.052;13.610;2023-02-26T09:38:47;2.50;;;2.17;;
58752;SDS011;44525;46.052;13.610;2023-02-26T09:41:21;6.78;;;2.80;;
58752;SDS011;44525;46.052;13.610;2023-02-26T09:44:22;2.97;;;2.22;;
58752;SDS011;44525;46.052;13.610;2023-02-26T09:46:47;3.10;;;2.20;;
58752;SDS011;44525;46.052;13.610;2023-02-26T09:51:48;5.43;;;2.25;;
58752;SDS011;44525;46.052;13.610;2023-02-26T09:54:21;3.65;;;2.53;;
58752;SDS011;44525;46.052;13.610;2023-02-26T09:56:50;2.17;;;1.80;;
58752;SDS011;44525;46.052;13.610;2023-02-26T09:59:17;4.32;;;2.65;;
58752;SDS011;44525;46.052;13.610;2023-02-26T10:01:55;2.80;;;1.90;;
58752;SDS011;44525;46.052;13.610;2023-02-26T10:04:33;3.22;;;2.25;;
58752;SDS011;44525;46.052;13.610;2023-02-26T10:07:30;3.67;;;2.38;;
58752;SDS011;44525;46.052;13.610;2023-02-26T10:12:51;3.50;;;2.28;;
58752;SDS011;44525;46.052;13.610;2023-02-26T10:15:24;4.60;;;2.75;;
58752;SDS011;44525;46.052;13.610;2023-02-26T10:33:59;6.07;;;2.60;;
58752;SDS011;44525;46.052;13.610;2023-02-26T10:42:19;2.88;;;2.00;;
58752;SDS011;44525;46.052;13.610;2023-02-26T10:50:14;5.28;;;3.13;;
58752;SDS011;44525;46.052;13.610;2023-02-26T10:52:45;4.18;;;2.70;;
58752;SDS011;44525;46.052;13.610;2023-02-26T10:58:10;3.00;;;2.40;;
58752;SDS011;44525;46.052;13.610;2023-02-26T11:00:39;6.57;;;4.20;;
58752;SDS011;44525;46.052;13.610;2023-02-26T11:03:21;4.15;;;2.70;;
58752;SDS011;44525;46.052;13.610;2023-02-26T11:05:53;5.05;;;3.25;;
58752;SDS011;44525;46.052;13.610;2023-02-26T11:08:22;3.78;;;2.35;;
58752;SDS011;44525;46.052;13.610;2023-02-26T11:10:52;4.00;;;2.65;;
58752;SDS011;44525;46.052;13.610;2023-02-26T11:13:22;4.95;;;2.70;;
58752;SDS011;44525;46.052;13.610;2023-02-26T11:15:50;4.82;;;2.50;;
58752;SDS011;44525;46.052;13.610;2023-02-26T11:18:20;3.33;;;2.55;;
58752;SDS011;44525;46.052;13.610;2023-02-26T11:20:52;3.67;;;2.60;;
58752;SDS011;44525;46.052;13.610;2023-02-26T11:23:21;4.22;;;2.60;;
58752;SDS011;44525;46.052;13.610;2023-02-26T11:25:51;3.25;;;2.28;;
58752;SDS011;44525;46.052;13.610;2023-02-26T11:28:41;3.20;;;2.20;;
58752;SDS011;44525;46.052;13.610;2023-02-26T11:31:11;6.25;;;3.33;;
58752;SDS011;44525;46.052;13.610;2023-02-26T11:34:00;4.32;;;2.92;;
58752;SDS011;44525;46.052;13.610;2023-02-26T11:36:30;4.30;;;2.80;;
58752;SDS011;44525;46.052;13.610;2023-02-26T11:39:01;4.82;;;2.88;;
58752;SDS011;44525;46.052;13.610;2023-02-26T11:41:34;5.10;;;3.07;;
58752;SDS011;44525;46.052;13.610;2023-02-26T11:44:06;4.45;;;2.88;;
58752;SDS011;44525;46.052;13.610;2023-02-26T11:46:42;5.03;;;2.60;;
58752;SDS011;44525;46.052;13.610;2023-02-26T11:49:14;6.35;;;2.88;;
58752;SDS011;44525;46.052;13.610;2023-02-26T11:51:45;2.88;;;2.40;;
58752;SDS011;44525;46.052;13.610;2023-02-26T11:54:20;4.22;;;2.80;;
58752;SDS011;44525;46.052;13.610;2023-02-26T11:56:48;3.60;;;2.67;;
58752;SDS011;44525;46.052;13.610;2023-02-26T11:59:20;7.05;;;3.75;;
58752;SDS011;44525;46.052;13.610;2023-02-26T12:01:58;7.85;;;4.22;;
58752;SDS011;44525;46.052;13.610;2023-02-26T12:04:27;6.20;;;3.78;;
58752;SDS011;44525;46.052;13.610;2023-02-26T12:06:55;6.95;;;3.92;;
58752;SDS011;44525;46.052;13.610;2023-02-26T12:09:21;4.53;;;2.92;;
58752;SDS011;44525;46.052;13.610;2023-02-26T12:30:27;3.88;;;2.47;;
58752;SDS011;44525;46.052;13.610;2023-02-26T12:54:03;26.15;;;13.93;;
58752;SDS011;44525;46.052;13.610;2023-02-26T13:08:14;5.40;;;3.03;;
58752;SDS011;44525;46.052;13.610;2023-02-26T13:14:17;5.68;;;3.50;;
58752;SDS011;44525;46.052;13.610;2023-02-26T13:17:06;5.53;;;3.00;;
58752;SDS011;44525;46.052;13.610;2023-02-26T13:20:09;4.03;;;2.72;;
58752;SDS011;44525;46.052;13.610;2023-02-26T13:22:40;6.95;;;3.83;;
58752;SDS011;44525;46.052;13.610;2023-02-26T13:25:32;5.45;;;3.17;;
58752;SDS011;44525;46.052;13.610;2023-02-26T13:30:54;6.90;;;3.50;;
58752;SDS011;44525;46.052;13.610;2023-02-26T13:33:22;11.02;;;5.78;;
58752;SDS011;44525;46.052;13.610;2023-02-26T13:35:58;19.83;;;9.57;;
58752;SDS011;44525;46.052;13.610;2023-02-26T13:44:04;9.85;;;6.68;;
58752;SDS011;44525;46.052;13.610;2023-02-26T13:51:43;6.32;;;4.00;;
58752;SDS011;44525;46.052;13.610;2023-02-26T14:01:52;7.47;;;3.33;;
58752;SDS011;44525;46.052;13.610;2023-02-26T14:06:47;6.40;;;3.75;;
58752;SDS011;44525;46.052;13.610;2023-02-26T14:16:49;5.82;;;3.47;;
58752;SDS011;44525;46.052;13.610;2023-02-26T14:22:19;6.97;;;3.50;;
58752;SDS011;44525;46.052;13.610;2023-02-26T14:24:52;6.93;;;3.83;;
58752;SDS011;44525;46.052;13.610;2023-02-26T14:29:57;4.63;;;3.00;;
58752;SDS011;44525;46.052;13.610;2023-02-26T14:35:32;4.90;;;3.35;;
58752;SDS011;44525;46.052;13.610;2023-02-26T14:38:04;7.47;;;4.55;;
58752;SDS011;44525;46.052;13.610;2023-02-26T14:40:45;4.70;;;3.08;;
58752;SDS011;44525;46.052;13.610;2023-02-26T14:43:18;7.07;;;4.07;;
58752;SDS011;44525;46.052;13.610;2023-02-26T14:45:46;6.82;;;3.70;;
58752;SDS011;44525;46.052;13.610;2023-02-26T14:48:15;4.78;;;2.70;;
58752;SDS011;44525;46.052;13.610;2023-02-26T14:57:08;5.13;;;2.58;;
58752;SDS011;44525;46.052;13.610;2023-02-26T15:10:12;5.90;;;3.83;;
58752;SDS011;44525;46.052;13.610;2023-02-26T15:23:43;6.25;;;2.92;;
58752;SDS011;44525;46.052;13.610;2023-02-26T15:26:16;5.53;;;3.17;;
58752;SDS011;44525;46.052;13.610;2023-02-26T15:28:45;6.00;;;3.92;;
58752;SDS011;44525;46.052;13.610;2023-02-26T15:31:11;4.40;;;2.85;;
58752;SDS011;44525;46.052;13.610;2023-02-26T15:33:37;7.70;;;3.53;;
58752;SDS011;44525;46.052;13.610;2023-02-26T15:36:06;7.07;;;3.60;;
58752;SDS011;44525;46.052;13.610;2023-02-26T15:39:07;6.38;;;3.78;;
58752;SDS011;44525;46.052;13.610;2023-02-26T15:41:28;6.82;;;3.47;;
58752;SDS011;44525;46.052;13.610;2023-02-26T15:44:37;5.93;;;3.17;;
58752;SDS011;44525;46.052;13.610;2023-02-26T15:46:47;5.45;;;3.28;;
58752;SDS011;44525;46.052;13.610;2023-02-26T15:49:25;6.93;;;3.30;;
58752;SDS011;44525;46.052;13.610;2023-02-26T15:51:56;5.43;;;3.33;;
58752;SDS011;44525;46.052;13.610;2023-02-26T15:54:23;7.00;;;4.18;;
58752;SDS011;44525;46.052;13.610;2023-02-26T15:56:52;5.82;;;3.70;;
58752;SDS011;44525;46.052;13.610;2023-02-26T15:59:18;8.23;;;4.40;;
58752;SDS011;44525;46.052;13.610;2023-02-26T16:01:47;5.32;;;3.40;;
58752;SDS011;44525;46.052;13.610;2023-02-26T16:04:15;5.43;;;3.50;;
58752;SDS011;44525;46.052;13.610;2023-02-26T16:06:45;9.00;;;5.30;;
58752;SDS011;44525;46.052;13.610;2023-02-26T16:09:25;12.75;;;7.05;;
58752;SDS011;44525;46.052;13.610;2023-02-26T16:11:59;7.35;;;4.10;;
58752;SDS011;44525;46.052;13.610;2023-02-26T16:14:32;7.07;;;4.13;;
58752;SDS011;44525;46.052;13.610;2023-02-26T16:17:02;6.13;;;3.75;;
58752;SDS011;44525;46.052;13.610;2023-02-26T16:19:41;7.30;;;3.90;;
58752;SDS011;44525;46.052;13.610;2023-02-26T16:24:58;5.50;;;3.63;;
58752;SDS011;44525;46.052;13.610;2023-02-26T16:27:27;5.47;;;3.33;;
58752;SDS011;44525;46.052;13.610;2023-02-26T16:29:55;5.82;;;3.30;;
58752;SDS011;44525;46.052;13.610;2023-02-26T16:32:23;7.15;;;3.47;;
58752;SDS011;44525;46.052;13.610;2023-02-26T16:34:53;6.45;;;3.70;;
58752;SDS011;44525;46.052;13.610;2023-02-26T16:40:16;5.80;;;3.55;;
58752;SDS011;44525;46.052;13.610;2023-02-26T16:43:01;5.50;;;3.40;;
58752;SDS011;44525;46.052;13.610;2023-02-26T16:48:00;9.80;;;4.70;;
58752;SDS011;44525;46.052;13.610;2023-02-26T16:50:33;6.30;;;4.10;;
58752;SDS011;44525;46.052;13.610;2023-02-26T16:53:04;5.35;;;3.33;;
58752;SDS011;44525;46.052;13.610;2023-02-26T16:55:31;6.15;;;3.75;;
58752;SDS011;44525;46.052;13.610;2023-02-26T16:57:59;6.32;;;3.67;;
58752;SDS011;44525;46.052;13.610;2023-02-26T17:00:28;6.63;;;4.03;;
58752;SDS011;44525;46.052;13.610;2023-02-26T17:03:04;6.07;;;3.80;;
58752;SDS011;44525;46.052;13.610;2023-02-26T17:05:35;20.23;;;8.65;;
58752;SDS011;44525;46.052;13.610;2023-02-26T17:10:44;8.48;;;4.50;;
58752;SDS011;44525;46.052;13.610;2023-02-26T17:15:47;15.98;;;8.27;;
58752;SDS011;44525;46.052;13.610;2023-02-26T17:18:14;16.55;;;9.25;;
58752;SDS011;44525;46.052;13.610;2023-02-26T17:20:40;20.08;;;10.57;;
58752;SDS011;44525;46.052;13.610;2023-02-26T17:23:06;14.55;;;8.40;;
58752;SDS011;44525;46.052;13.610;2023-02-26T17:25:35;8.40;;;5.15;;
58752;SDS011;44525;46.052;13.610;2023-02-26T17:28:04;13.02;;;7.85;;
58752;SDS011;44525;46.052;13.610;2023-02-26T17:30:30;16.05;;;8.18;;
58752;SDS011;44525;46.052;13.610;2023-02-26T17:32:58;11.82;;;7.32;;
58752;SDS011;44525;46.052;13.610;2023-02-26T17:35:24;9.68;;;5.53;;
58752;SDS011;44525;46.052;13.610;2023-02-26T17:37:50;12.27;;;5.90;;
58752;SDS011;44525;46.052;13.610;2023-02-26T17:40:22;8.25;;;4.43;;
58752;SDS011;44525;46.052;13.610;2023-02-26T17:42:49;7.55;;;4.05;;
58752;SDS011;44525;46.052;13.610;2023-02-26T17:45:16;5.75;;;3.55;;
58752;SDS011;44525;46.052;13.610;2023-02-26T17:47:42;6.65;;;3.80;;
58752;SDS011;44525;46.052;13.610;2023-02-26T17:50:17;5.30;;;3.20;;
58752;SDS011;44525;46.052;13.610;2023-02-26T17:52:53;6.78;;;3.90;;
58752;SDS011;44525;46.052;13.610;2023-02-26T17:55:19;6.88;;;3.75;;
58752;SDS011;44525;46.052;13.610;2023-02-26T17:57:44;6.85;;;4.40;;
58752;SDS011;44525;46.052;13.610;2023-02-26T18:00:10;7.88;;;4.45;;
58752;SDS011;44525;46.052;13.610;2023-02-26T18:02:39;6.93;;;3.50;;
58752;SDS011;44525;46.052;13.610;2023-02-26T18:05:04;5.57;;;3.55;;
58752;SDS011;44525;46.052;13.610;2023-02-26T18:07:30;5.50;;;3.80;;
58752;SDS011;44525;46.052;13.610;2023-02-26T18:09:56;4.20;;;2.92;;
58752;SDS011;44525;46.052;13.610;2023-02-26T18:12:21;5.00;;;2.90;;
58752;SDS011;44525;46.052;13.610;2023-02-26T18:14:47;5.15;;;3.13;;
58752;SDS011;44525;46.052;13.610;2023-02-26T18:17:14;7.18;;;3.28;;
58752;SDS011;44525;46.052;13.610;2023-02-26T18:19:44;5.13;;;3.60;;
58752;SDS011;44525;46.052;13.610;2023-02-26T18:22:13;6.55;;;4.50;;
58752;SDS011;44525;46.052;13.610;2023-02-26T18:24:40;7.95;;;5.15;;
58752;SDS011;44525;46.052;13.610;2023-02-26T18:27:06;12.48;;;6.95;;
58752;SDS011;44525;46.052;13.610;2023-02-26T18:29:37;18.23;;;9.27;;
58752;SDS011;44525;46.052;13.610;2023-02-26T18:32:02;15.93;;;7.80;;
58752;SDS011;44525;46.052;13.610;2023-02-26T18:34:27;11.18;;;6.93;;
58752;SDS011;44525;46.052;13.610;2023-02-26T18:36:53;19.58;;;9.40;;